Terminal Aerodrome Forecast
Issued by NWS Wichita, KS

Home | Current Version | Previous Version | Text Only | Print | Product List | Glossary Off
Versions: 1 2 3 4 5 6 7 8 9 10 11 12 13 14 15 16 17 18 19

837
FTUS43 KICT 230520
TAFICT
TAF
KICT 230520Z 2306/2406 03020G30KT P6SM -TSRA SCT080CB
     FM230700 03010KT P6SM SCT250
     FM231200 05005KT P6SM SCT250
     FM231800 05007KT P6SM SCT100=

USA.gov is the U.S. government's official web portal to all federal, state and local government web resources and services.